Time;durP1;ratioP1;P1;durP2;ratioP2;P2;SDS_P1;SDS_P2;PMS_P1;PMS_P2;Temp;Humidity;BMP_temperature;BMP_pressure;BME280_temperature;BME280_humidity;BME280_pressure;Samples;Min_cycle;Max_cycle;Signal;HPM_P1;HPM_P2
2022/11/04 00:01:13;;;;;;;12.05;6.82;;;;;;;10.93;57.29;94958.16;5062196;28;20036;-72
2022/11/04 00:03:39;;;;;;;12.32;7.18;;;;;;;10.95;57.21;94956.25;5056265;28;20040;-71
2022/11/04 00:06:05;;;;;;;11.07;7.10;;;;;;;10.82;57.44;94945.22;5073961;28;20025;-71
2022/11/04 00:08:30;;;;;;;12.07;6.82;;;;;;;10.86;57.21;94957.81;5056019;28;20051;-72
2022/11/04 00:13:41;;;;;;;10.45;6.82;;;;;;;10.82;58.29;94947.81;5068199;28;20521;-71
2022/11/04 00:18:51;;;;;;;14.85;6.90;;;;;;;10.78;58.39;94959.38;5057729;28;20101;-71
2022/11/04 00:29:28;;;;;;;12.25;7.55;;;;;;;10.56;58.93;94940.34;5056383;28;20035;-71
2022/11/04 00:34:37;;;;;;;13.43;8.57;;;;;;;10.62;59.94;94952.03;5052991;28;20036;-72
2022/11/04 00:37:02;;;;;;;10.80;7.43;;;;;;;10.58;60.59;94959.22;5056971;28;20036;-71
2022/11/04 00:39:28;;;;;;;11.98;7.68;;;;;;;10.65;60.57;94955.19;5073496;28;20036;-72
2022/11/04 00:41:54;;;;;;;15.52;8.25;;;;;;;10.70;59.87;94947.03;5072069;28;20087;-71
2022/11/04 00:44:19;;;;;;;12.93;7.78;;;;;;;10.59;59.82;94941.88;5055203;28;20031;-71
2022/11/04 00:46:45;;;;;;;13.65;7.28;;;;;;;10.57;60.02;94946.38;5064163;28;20040;-71
2022/11/04 00:49:11;;;;;;;12.18;7.97;;;;;;;10.47;60.32;94933.28;5051798;28;20029;-71
2022/11/04 00:51:37;;;;;;;15.25;9.23;;;;;;;10.48;60.44;94932.34;5053260;28;20052;-71
2022/11/04 00:54:02;;;;;;;16.67;8.93;;;;;;;10.45;61.24;94936.03;5051819;28;20483;-71
2022/11/04 00:56:28;;;;;;;11.65;8.05;;;;;;;10.44;61.00;94938.72;5045099;28;20058;-71
2022/11/04 00:58:53;;;;;;;14.55;8.68;;;;;;;10.39;61.61;94930.47;5053210;28;20040;-71
2022/11/04 01:01:19;;;;;;;14.85;8.43;;;;;;;10.57;61.40;94936.81;5052844;28;20044;-71
2022/11/04 01:03:45;;;;;;;17.80;9.18;;;;;;;10.51;61.60;94929.50;5035079;28;20303;-71
2022/11/04 01:06:11;;;;;;;13.68;8.65;;;;;;;10.49;61.78;94924.44;5070817;28;20104;-71
2022/11/04 01:08:36;;;;;;;13.35;8.48;;;;;;;10.73;60.80;94921.63;5073101;28;20071;-71
2022/11/04 01:11:03;;;;;;;12.68;7.68;;;;;;;10.77;59.60;94911.78;5071575;28;20055;-71
2022/11/04 01:13:28;;;;;;;15.50;7.95;;;;;;;10.82;59.77;94914.03;5071055;28;20033;-71
2022/11/04 01:15:56;;;;;;;15.43;8.38;;;;;;;10.76;59.74;94910.16;5071476;28;20406;-71
2022/11/04 01:18:21;;;;;;;16.60;8.40;;;;;;;10.63;60.05;94899.09;5071547;28;20025;-71
2022/11/04 01:20:47;;;;;;;13.10;7.93;;;;;;;10.84;59.75;94912.94;5071372;28;20032;-71
2022/11/04 01:23:12;;;;;;;12.65;8.35;;;;;;;10.63;60.75;94905.13;5062818;28;20029;-71
2022/11/04 01:25:41;;;;;;;13.48;8.90;;;;;;;10.63;60.59;94904.31;5051363;28;20033;-71
2022/11/04 01:28:06;;;;;;;16.75;8.60;;;;;;;10.57;60.90;94895.25;5034570;28;20041;-71
2022/11/04 01:30:32;;;;;;;15.00;8.35;;;;;;;10.61;60.75;94893.22;5051073;28;20423;-72
2022/11/04 01:32:57;;;;;;;13.73;8.60;;;;;;;10.70;60.32;94889.88;5047481;28;20402;-71
2022/11/04 01:35:23;;;;;;;15.93;8.88;;;;;;;10.81;59.92;94902.81;5070988;28;20111;-73
2022/11/04 01:37:48;;;;;;;12.93;8.07;;;;;;;10.80;59.62;94898.53;5072048;28;20032;-71
2022/11/04 01:40:14;;;;;;;10.98;7.90;;;;;;;10.85;59.21;94885.19;5072189;28;20039;-71
2022/11/04 01:42:39;;;;;;;13.50;7.78;;;;;;;10.69;59.51;94886.44;5052426;28;20048;-71
2022/11/04 01:45:07;;;;;;;14.18;7.53;;;;;;;10.69;59.21;94896.81;5050904;28;20025;-71
2022/11/04 01:47:36;;;;;;;12.85;8.02;;;;;;;10.50;59.57;94889.72;5033475;28;20574;-71
2022/11/04 01:50:13;;;;;;;10.60;7.60;;;;;;;10.46;60.08;94890.09;5037529;28;20024;-71
2022/11/04 01:52:43;;;;;;;12.88;8.02;;;;;;;10.36;60.19;94895.19;5070755;28;20056;-71
2022/11/04 01:55:22;;;;;;;13.75;8.75;;;;;;;10.40;60.29;94885.41;5070679;28;20017;-71
2022/11/04 01:57:48;;;;;;;12.77;8.02;;;;;;;10.29;59.98;94873.28;5038956;28;20490;-71
2022/11/04 02:00:14;;;;;;;10.02;7.53;;;;;;;10.34;59.82;94878.13;5052091;28;20264;-71
2022/11/04 02:02:45;;;;;;;12.35;8.23;;;;;;;9.85;60.34;94842.09;5053940;28;20064;-71
2022/11/04 02:05:11;;;;;;;12.88;8.15;;;;;;;10.09;60.45;94880.03;5070505;28;20025;-71
2022/11/04 02:07:36;;;;;;;12.15;8.45;;;;;;;9.89;60.63;94854.84;5070253;28;20040;-71
2022/11/04 02:10:02;;;;;;;21.17;8.73;;;;;;;9.95;61.18;94877.72;5035255;28;20045;-71
2022/11/04 02:15:11;;;;;;;11.63;7.88;;;;;;;9.80;61.44;94869.38;5051553;28;20066;-71
2022/11/04 02:18:05;;;;;;;13.10;7.78;;;;;;;9.79;61.69;94863.34;5055535;28;20044;-71
2022/11/04 02:20:39;;;;;;;15.25;9.32;;;;;;;9.81;61.90;94863.25;5070117;28;20086;-71
2022/11/04 02:23:31;;;;;;;13.30;8.57;;;;;;;9.84;61.70;94861.22;5070134;28;20449;-71
2022/11/04 02:26:15;;;;;;;;;;;;;;;9.83;62.42;94864.78;5055649;28;20286;-71
2022/11/04 02:29:17;;;;;;;13.18;9.60;;;;;;;9.77;62.79;94870.44;5051643;28;19927;-71
2022/11/04 02:32:33;;;;;;;14.73;9.80;;;;;;;9.43;62.71;94868.84;5051299;28;20395;-71
2022/11/04 02:35:26;;;;;;;12.88;9.18;;;;;;;9.42;62.79;94860.22;5049150;28;20086;-71
2022/11/04 02:38:25;;;;;;;15.73;9.30;;;;;;;9.37;62.92;94860.56;5051381;28;20625;-71
2022/11/04 02:41:00;;;;;;;16.35;9.98;;;;;;;9.17;62.71;94864.72;5051124;28;20456;-71
2022/11/04 02:43:28;;;;;;;16.65;9.88;;;;;;;8.87;64.25;94867.03;5051401;28;20032;-71
2022/11/04 02:46:04;;;;;;;15.65;9.85;;;;;;;8.65;64.46;94853.09;5063193;28;20123;-71
2022/11/04 02:48:38;;;;;;;18.92;10.20;;;;;;;8.59;64.13;94842.38;5053463;28;20047;-71
2022/11/04 02:51:08;;;;;;;14.95;10.20;;;;;;;8.71;65.03;94872.53;5057293;28;20048;-71
2022/11/04 02:53:37;;;;;;;13.82;9.95;;;;;;;8.74;64.91;94854.16;5050076;28;20090;-71
2022/11/04 02:56:02;;;;;;;17.15;10.40;;;;;;;8.61;64.71;94856.00;5071010;28;20906;-71
2022/11/04 02:58:31;;;;;;;17.63;11.95;;;;;;;8.57;66.31;94855.41;5052609;28;20047;-71
2022/11/04 03:00:57;;;;;;;19.00;11.48;;;;;;;8.62;67.47;94850.72;5053270;28;20046;-71
2022/11/04 03:03:28;;;;;;;19.73;11.35;;;;;;;8.62;66.20;94850.72;5032661;28;20033;-71
2022/11/04 03:05:54;;;;;;;15.82;12.25;;;;;;;8.66;66.92;94849.56;5049577;28;20039;-72
2022/11/04 03:08:36;;;;;;;14.77;10.95;;;;;;;8.58;66.19;94843.28;5032859;28;20044;-71
2022/11/04 03:11:16;;;;;;;15.77;11.27;;;;;;;8.54;66.00;94866.00;5049572;28;20111;-72
2022/11/04 03:13:50;;;;;;;18.42;10.30;;;;;;;8.60;65.49;94855.19;5045850;28;20028;-71
2022/11/04 03:16:18;;;;;;;15.93;11.27;;;;;;;8.53;65.37;94858.38;5050647;28;20029;-72
2022/11/04 03:19:02;;;;;;;18.17;11.13;;;;;;;8.53;64.98;94861.78;5032980;28;20044;-71
2022/11/04 03:21:27;;;;;;;20.33;10.75;;;;;;;8.45;64.24;94869.28;5055095;28;20032;-71
2022/11/04 03:23:53;;;;;;;15.57;11.25;;;;;;;8.34;65.57;94862.28;5069610;28;20601;-71
2022/11/04 03:26:22;;;;;;;18.77;11.32;;;;;;;8.32;66.27;94853.78;5070501;28;20070;-72
2022/11/04 03:29:17;;;;;;;23.27;11.95;;;;;;;8.19;66.07;94856.47;5069175;28;20041;-71
2022/11/04 03:31:46;;;;;;;16.48;11.35;;;;;;;8.11;66.65;94860.50;5040592;28;20053;-71
2022/11/04 03:34:11;;;;;;;17.45;11.80;;;;;;;7.93;66.51;94858.31;5032807;28;20564;-71
2022/11/04 03:36:37;;;;;;;15.93;11.32;;;;;;;7.93;66.69;94839.38;5032699;28;20041;-71
2022/11/04 03:39:02;;;;;;;17.80;11.70;;;;;;;8.12;66.40;94859.59;5032592;28;20025;-72
2022/11/04 03:41:34;;;;;;;21.95;12.35;;;;;;;8.12;67.29;94859.59;5032878;28;20087;-71
2022/11/04 03:44:00;;;;;;;15.73;11.68;;;;;;;7.85;67.78;94834.75;5049132;28;20032;-71
2022/11/04 03:46:25;;;;;;;17.73;12.20;;;;;;;7.95;67.71;94851.28;5016060;28;20029;-71
2022/11/04 03:48:52;;;;;;;19.10;11.80;;;;;;;7.93;67.32;94847.16;5053504;28;20029;-71
2022/11/04 03:51:17;;;;;;;17.48;12.50;;;;;;;8.01;67.91;94858.59;5038061;28;20090;-72
2022/11/04 03:53:42;;;;;;;18.77;12.90;;;;;;;7.94;67.92;94835.84;5050263;28;20033;-72
2022/11/04 03:56:11;;;;;;;17.02;11.95;;;;;;;7.98;67.09;94852.81;5050310;28;20051;-71
2022/11/04 03:59:14;;;;;;;17.95;11.95;;;;;;;7.74;67.16;94852.81;5060323;28;20037;-71
2022/11/04 04:01:52;;;;;;;20.27;12.35;;;;;;;7.70;67.00;94846.22;5070345;28;20449;-71
2022/11/04 04:04:24;;;;;;;22.73;13.27;;;;;;;7.65;68.86;94848.28;5068966;28;20112;-71
2022/11/04 04:06:49;;;;;;;;;;;;;;;7.73;68.50;94846.00;5066491;28;20045;-71
2022/11/04 04:09:23;;;;;;;19.20;13.02;;;;;;;7.63;69.52;94837.22;5082260;28;19912;-71
2022/11/04 04:11:54;;;;;;;20.70;12.48;;;;;;;7.72;69.01;94839.19;5020197;28;20138;-71
2022/11/04 04:14:40;;;;;;;21.23;14.20;;;;;;;7.76;69.48;94846.59;5019575;28;20415;-71
2022/11/04 04:17:13;;;;;;;19.02;13.50;;;;;;;7.48;70.15;94839.97;5064217;28;20036;-71
2022/11/04 04:19:40;;;;;;;19.20;13.43;;;;;;;7.63;69.59;94855.31;5073719;28;20127;-71
2022/11/04 04:22:12;;;;;;;18.98;13.50;;;;;;;7.63;69.34;94844.97;5054046;28;20197;-71
2022/11/04 04:27:30;;;;;;;20.95;12.90;;;;;;;7.52;67.62;94844.00;5053916;28;20464;-71
2022/11/04 04:29:55;;;;;;;20.42;13.43;;;;;;;7.44;68.41;94835.94;5050768;28;20063;-71
2022/11/04 04:32:21;;;;;;;19.73;13.02;;;;;;;7.43;68.79;94828.28;5032985;28;20032;-70
2022/11/04 04:34:47;;;;;;;19.17;13.05;;;;;;;7.42;69.05;94822.31;5050100;28;20035;-71
2022/11/04 04:37:18;;;;;;;17.65;13.65;;;;;;;7.48;69.68;94827.03;5050732;28;20033;-71
2022/11/04 04:45:40;;;;;;;19.95;13.15;;;;;;;7.35;68.98;94839.16;5066026;28;20520;-71
2022/11/04 04:48:05;;;;;;;20.25;13.95;;;;;;;7.33;69.52;94843.63;5053706;28;20052;-70
2022/11/04 04:50:35;;;;;;;19.60;13.50;;;;;;;7.28;70.07;94850.88;5049522;28;20032;-69
2022/11/04 04:53:02;;;;;;;18.95;13.80;;;;;;;7.32;70.58;94827.28;5043764;28;20563;-70
2022/11/04 04:55:30;;;;;;;19.67;13.77;;;;;;;7.24;69.99;94845.06;5059661;28;20060;-72
2022/11/04 04:57:56;;;;;;;21.45;13.98;;;;;;;7.15;70.15;94836.19;5050498;28;20493;-70
2022/11/04 05:00:21;;;;;;;25.10;16.50;;;;;;;7.15;70.35;94828.44;5051632;28;20062;-71
2022/11/04 05:02:47;;;;;;;20.27;13.88;;;;;;;7.26;70.17;94842.41;5060281;28;20044;-70
2022/11/04 05:05:13;;;;;;;22.55;14.65;;;;;;;7.30;70.50;94839.50;5050393;28;20113;-71
2022/11/04 05:07:41;;;;;;;22.00;14.15;;;;;;;7.28;70.06;94841.34;5048835;28;20042;-71
2022/11/04 05:10:07;;;;;;;21.45;14.30;;;;;;;7.02;69.14;94856.06;5066985;28;20060;-72
2022/11/04 05:15:20;;;;;;;19.33;13.75;;;;;;;7.03;69.95;94844.81;5066591;28;20087;-72
2022/11/04 05:17:46;;;;;;;24.40;14.23;;;;;;;7.11;69.76;94850.28;5067030;28;20482;-71
2022/11/04 05:20:11;;;;;;;24.20;16.15;;;;;;;6.78;70.98;94822.41;5068031;28;20016;-71
2022/11/04 05:22:37;;;;;;;19.33;13.80;;;;;;;7.16;70.33;94855.13;5064455;28;20122;-72
2022/11/04 05:25:02;;;;;;;21.58;13.80;;;;;;;7.11;70.66;94860.59;5067647;28;20029;-71
2022/11/04 05:27:28;;;;;;;22.33;14.77;;;;;;;7.08;70.78;94844.50;5066875;28;20257;-71
2022/11/04 05:29:53;;;;;;;21.05;13.77;;;;;;;7.02;70.33;94834.56;5050289;28;20759;-71
2022/11/04 05:32:19;;;;;;;22.20;14.80;;;;;;;7.21;70.03;94860.78;5047043;28;20043;-72
2022/11/04 05:34:44;;;;;;;24.58;15.23;;;;;;;7.15;70.91;94843.94;5058191;28;20021;-72
2022/11/04 05:37:09;;;;;;;20.75;14.38;;;;;;;7.39;71.29;94866.47;5058797;28;20033;-71
2022/11/04 05:39:35;;;;;;;23.27;15.10;;;;;;;7.29;70.96;94853.34;5059889;28;20032;-72
2022/11/04 05:42:00;;;;;;;22.77;14.57;;;;;;;7.46;70.25;94862.50;5074084;28;20376;-72
2022/11/04 05:44:26;;;;;;;23.15;14.90;;;;;;;7.52;70.17;94874.16;5043656;28;20024;-72
2022/11/04 05:46:51;;;;;;;20.80;13.52;;;;;;;7.46;70.32;94859.91;5060929;28;20036;-72
2022/11/04 05:49:17;;;;;;;22.30;13.73;;;;;;;7.52;69.85;94876.75;5040890;28;20056;-72
2022/11/04 05:51:43;;;;;;;18.52;13.23;;;;;;;7.57;69.83;94880.66;5058389;28;20037;-72
2022/11/04 05:54:08;;;;;;;22.42;13.35;;;;;;;7.56;69.80;94881.63;5061245;28;20074;-72
2022/11/04 05:56:34;;;;;;;22.40;14.55;;;;;;;7.53;69.71;94884.41;5058259;28;20487;-72
2022/11/04 05:58:59;;;;;;;20.65;14.50;;;;;;;7.64;69.85;94888.84;5046012;28;20020;-72
2022/11/04 06:01:25;;;;;;;20.67;14.27;;;;;;;7.62;69.85;94890.69;5066073;28;20025;-72
2022/11/04 06:03:51;;;;;;;24.48;14.90;;;;;;;7.54;70.04;94885.25;5071595;28;20090;-72
2022/11/04 06:06:16;;;;;;;20.27;13.93;;;;;;;7.62;70.78;94890.69;5070409;28;20073;-72
2022/11/04 06:08:42;;;;;;;22.38;14.43;;;;;;;7.63;70.38;94886.34;5062182;28;20041;-72
2022/11/04 06:11:07;;;;;;;19.73;13.45;;;;;;;7.56;70.93;94888.56;5056091;28;20037;-72
2022/11/04 06:13:32;;;;;;;19.35;13.77;;;;;;;7.67;70.24;94892.97;5060791;28;20036;-72
2022/11/04 06:15:58;;;;;;;21.42;14.27;;;;;;;7.65;70.93;94905.19;5060706;28;20029;-72
2022/11/04 06:18:23;;;;;;;23.13;14.73;;;;;;;7.64;71.72;94893.19;5065569;28;20036;-72
2022/11/04 06:20:49;;;;;;;23.83;15.10;;;;;;;7.67;71.36;94883.44;5066500;28;20506;-71
2022/11/04 06:23:14;;;;;;;19.63;13.35;;;;;;;7.82;70.86;94897.88;5063864;28;20543;-71
2022/11/04 06:25:40;;;;;;;23.45;15.18;;;;;;;7.82;71.12;94891.88;5066761;28;20044;-72
2022/11/04 06:28:05;;;;;;;23.27;14.85;;;;;;;7.86;71.72;94895.91;5058900;28;20032;-72
2022/11/04 06:30:31;;;;;;;21.38;14.73;;;;;;;8.03;72.14;94905.06;5052940;28;20029;-72
2022/11/04 06:32:56;;;;;;;21.70;13.65;;;;;;;8.15;71.21;94904.19;5048434;28;20025;-71
2022/11/04 06:35:22;;;;;;;19.58;14.05;;;;;;;8.14;70.65;94891.38;5032408;28;20463;-72
2022/11/04 06:37:47;;;;;;;21.90;14.43;;;;;;;8.10;70.88;94893.31;5033202;28;20029;-72
2022/11/04 06:40:12;;;;;;;24.05;15.20;;;;;;;8.23;71.16;94888.09;5043617;28;20067;-73
2022/11/04 06:42:38;;;;;;;25.23;15.80;;;;;;;8.26;70.99;94880.94;5059047;28;20075;-71
2022/11/04 06:45:04;;;;;;;25.38;16.13;;;;;;;8.38;70.88;94879.22;5043488;28;20090;-72
2022/11/04 06:47:29;;;;;;;22.75;15.07;;;;;;;8.62;70.79;94886.16;5066432;28;20036;-71
2022/11/04 06:49:55;;;;;;;21.73;14.70;;;;;;;8.75;70.28;94892.09;5065458;28;20036;-71
2022/11/04 06:52:20;;;;;;;23.95;14.57;;;;;;;8.88;69.92;94877.25;5043747;28;20033;-71
2022/11/04 06:54:46;;;;;;;26.05;18.02;;;;;;;9.03;69.89;94884.84;5063744;28;20440;-71
2022/11/04 06:57:12;;;;;;;29.73;20.98;;;;;;;9.04;70.57;94886.50;5048418;28;20036;-71
2022/11/04 06:59:37;;;;;;;38.28;24.67;;;;;;;9.09;70.55;94892.16;5046549;28;20039;-72
2022/11/04 07:02:03;;;;;;;31.35;23.00;;;;;;;9.21;70.19;94878.25;5054236;28;20051;-72
2022/11/04 07:04:29;;;;;;;30.85;20.77;;;;;;;9.61;68.52;94847.47;5057689;28;20493;-72
2022/11/04 07:06:54;;;;;;;36.83;21.38;;;;;;;10.11;67.61;94895.47;5059843;28;21407;-71
2022/11/04 07:09:19;;;;;;;36.17;23.40;;;;;;;10.39;66.88;94894.13;5058265;28;20028;-72
2022/11/04 07:11:45;;;;;;;36.30;22.77;;;;;;;10.87;65.45;94881.50;5063267;28;20029;-72
2022/11/04 07:14:11;;;;;;;29.80;20.70;;;;;;;11.46;64.14;94880.03;5057099;28;20029;-72
2022/11/04 07:16:37;;;;;;;31.75;21.17;;;;;;;12.55;60.56;94886.19;5061613;28;20045;-72
2022/11/04 07:19:03;;;;;;;34.70;21.77;;;;;;;13.20;57.75;94868.09;5067072;28;20052;-72
2022/11/04 07:21:28;;;;;;;33.75;20.90;;;;;;;13.66;56.47;94863.88;5045115;28;20025;-72
2022/11/04 07:23:54;;;;;;;29.40;20.73;;;;;;;14.65;54.13;94870.94;5058983;28;20095;-72
2022/11/04 07:26:20;;;;;;;28.55;19.63;;;;;;;15.37;51.76;94861.97;5066100;28;20021;-72
2022/11/04 07:28:45;;;;;;;27.50;18.58;;;;;;;15.88;50.01;94866.50;5065182;28;20028;-73
2022/11/04 07:31:11;;;;;;;27.20;17.75;;;;;;;16.37;48.42;94856.16;5048538;28;20024;-72
2022/11/04 07:33:36;;;;;;;32.67;19.98;;;;;;;16.31;48.03;94852.38;5047331;28;20044;-73
2022/11/04 07:36:06;;;;;;;29.95;19.55;;;;;;;16.68;46.99;94833.56;5049051;28;20036;-72
2022/11/04 07:38:32;;;;;;;24.33;19.05;;;;;;;17.26;45.83;94836.97;5065675;28;20418;-72
2022/11/04 07:40:57;;;;;;;26.48;18.52;;;;;;;17.70;44.84;94839.16;5066976;28;20023;-72
2022/11/04 07:43:23;;;;;;;27.33;17.77;;;;;;;18.27;43.53;94838.06;5029754;28;20486;-74
2022/11/04 07:46:06;;;;;;;24.48;18.13;;;;;;;18.21;42.92;94813.31;5069367;28;20028;-73
2022/11/04 07:48:31;;;;;;;28.45;18.25;;;;;;;17.88;43.89;94824.97;5052001;28;20035;-73
2022/11/04 07:50:57;;;;;;;22.90;16.77;;;;;;;17.42;45.42;94823.81;5047821;28;20037;-73
2022/11/04 07:53:23;;;;;;;22.52;17.48;;;;;;;17.10;45.87;94834.38;5043406;28;20029;-73
2022/11/04 07:55:49;;;;;;;26.20;18.17;;;;;;;16.95;46.31;94835.06;5064373;28;20040;-73
2022/11/04 07:58:17;;;;;;;26.25;17.88;;;;;;;16.83;46.47;94836.38;5044408;28;20041;-72
2022/11/04 08:00:42;;;;;;;23.50;16.90;;;;;;;16.56;47.14;94828.81;5059523;28;20509;-73
2022/11/04 08:03:08;;;;;;;27.30;19.48;;;;;;;16.03;48.23;94831.69;5062936;28;20032;-72
2022/11/04 08:05:34;;;;;;;26.60;17.58;;;;;;;15.84;48.76;94835.38;5062420;28;20078;-73
2022/11/04 08:07:59;;;;;;;27.67;17.77;;;;;;;15.70;49.31;94822.06;5050139;28;20133;-72
2022/11/04 08:10:25;;;;;;;25.65;18.13;;;;;;;15.59;49.81;94820.53;5067468;28;20064;-72
2022/11/04 08:12:51;;;;;;;29.25;18.45;;;;;;;15.62;49.50;94826.25;5064097;28;20033;-73
2022/11/04 08:15:16;;;;;;;27.00;18.13;;;;;;;15.61;49.51;94811.53;5060127;28;20055;-73
2022/11/04 08:17:42;;;;;;;23.02;17.60;;;;;;;15.75;49.42;94822.44;5047188;28;20033;-73
2022/11/04 08:20:08;;;;;;;26.27;17.52;;;;;;;15.87;49.00;94810.66;5066154;28;20035;-72
2022/11/04 08:22:34;;;;;;;24.73;16.98;;;;;;;15.85;49.08;94794.28;5067923;28;20478;-73
2022/11/04 08:24:59;;;;;;;25.92;17.42;;;;;;;16.03;48.71;94807.28;5040553;28;20025;-73
2022/11/04 08:27:25;;;;;;;29.33;18.98;;;;;;;16.05;48.81;94807.94;5060959;28;20040;-73
2022/11/04 08:29:50;;;;;;;28.50;18.50;;;;;;;16.02;48.74;94798.59;5048491;28;20025;-73
2022/11/04 08:32:16;;;;;;;29.30;18.23;;;;;;;15.95;48.66;94805.44;5061042;28;20021;-72
2022/11/04 08:34:42;;;;;;;23.85;16.55;;;;;;;15.93;48.65;94789.06;5062632;28;20036;-72
2022/11/04 08:37:07;;;;;;;27.75;17.10;;;;;;;16.05;48.58;94792.22;5062943;28;20037;-73
2022/11/04 08:39:33;;;;;;;26.48;15.60;;;;;;;16.15;48.35;94797.31;5063540;28;20388;-72
2022/11/04 08:41:59;;;;;;;25.92;15.98;;;;;;;16.27;47.78;94790.78;5066307;28;20412;-73
2022/11/04 08:44:24;;;;;;;26.20;16.98;;;;;;;16.37;47.65;94785.38;5060734;28;20032;-72
2022/11/04 08:46:50;;;;;;;25.83;16.23;;;;;;;16.38;47.69;94790.47;5059325;28;20033;-71
2022/11/04 08:49:15;;;;;;;26.30;15.63;;;;;;;16.43;47.45;94774.22;5064504;28;20031;-71
2022/11/04 08:51:44;;;;;;;20.38;14.57;;;;;;;16.41;47.02;94769.16;5048777;28;20043;-71
2022/11/04 08:54:09;;;;;;;24.58;16.35;;;;;;;16.50;47.35;94773.41;5064327;28;20013;-73
2022/11/04 08:56:36;;;;;;;22.27;15.38;;;;;;;16.59;47.05;94776.03;5041164;28;20089;-71
2022/11/04 08:59:03;;;;;;;23.98;15.80;;;;;;;16.57;47.30;94751.78;5030323;28;20029;-72
2022/11/04 09:01:29;;;;;;;26.65;17.17;;;;;;;16.50;47.41;94755.06;5040112;28;20078;-71
2022/11/04 09:03:54;;;;;;;26.77;16.65;;;;;;;16.35;48.14;94774.22;5063750;28;20040;-71
2022/11/04 09:06:25;;;;;;;22.02;15.15;;;;;;;16.08;48.35;94758.66;5069645;28;20024;-71
2022/11/04 09:08:51;;;;;;;23.70;14.75;;;;;;;16.14;48.67;94766.84;5036255;28;20028;-72
2022/11/04 09:11:17;;;;;;;22.73;16.10;;;;;;;16.31;48.00;94768.50;5070500;28;20052;-72
2022/11/04 09:13:43;;;;;;;22.08;14.90;;;;;;;16.37;47.77;94753.91;5071953;28;20040;-72
2022/11/04 09:16:10;;;;;;;23.45;14.48;;;;;;;16.45;47.76;94754.72;5053726;28;20028;-72
2022/11/04 09:18:35;;;;;;;22.27;15.55;;;;;;;16.39;47.06;94741.47;5051918;28;20029;-72
2022/11/04 09:21:01;;;;;;;21.67;13.95;;;;;;;16.50;47.03;94731.47;5052573;28;20086;-72
2022/11/04 09:23:27;;;;;;;22.65;14.73;;;;;;;16.52;46.98;94739.19;5068507;28;20033;-72
2022/11/04 09:25:52;;;;;;;24.15;15.15;;;;;;;16.52;47.16;94712.97;5069330;28;20025;-72
2022/11/04 09:28:18;;;;;;;26.88;15.18;;;;;;;16.84;46.20;94727.84;5052059;28;20036;-72
2022/11/04 09:30:43;;;;;;;23.10;14.90;;;;;;;16.71;46.42;94717.81;5069510;28;20101;-72
2022/11/04 09:33:09;;;;;;;26.73;15.57;;;;;;;16.53;47.48;94731.13;5071274;28;20102;-72
2022/11/04 09:35:34;;;;;;;23.58;15.00;;;;;;;16.59;47.48;94728.84;5054563;28;20036;-72
2022/11/04 09:38:00;;;;;;;24.15;15.85;;;;;;;16.65;47.37;94715.06;5069932;28;20102;-72
2022/11/04 09:40:26;;;;;;;21.05;15.25;;;;;;;16.74;47.52;94717.50;5062961;28;20494;-75
2022/11/04 09:43:13;;;;;;;21.90;14.85;;;;;;;16.87;47.21;94714.38;5033043;28;20036;-76
2022/11/04 09:45:39;;;;;;;21.50;15.23;;;;;;;17.00;46.96;94707.81;5064445;28;20039;-76
2022/11/04 09:48:06;;;;;;;23.08;14.75;;;;;;;17.15;46.07;94700.84;5033281;28;20048;-76
2022/11/04 09:50:49;;;;;;;23.27;14.05;;;;;;;17.22;46.14;94695.72;5025736;28;20110;-76
2022/11/04 09:53:17;;;;;;;23.33;15.73;;;;;;;17.27;46.01;94688.97;5066627;28;20037;-76
2022/11/04 09:55:57;;;;;;;22.90;15.20;;;;;;;17.13;46.07;94687.06;5027836;28;20055;-76
2022/11/04 09:58:23;;;;;;;23.23;13.77;;;;;;;17.02;46.44;94677.78;5049784;28;20504;-76
2022/11/04 10:00:59;;;;;;;20.00;13.88;;;;;;;17.26;45.39;94674.22;5049292;28;20032;-76
2022/11/04 10:04:00;;;;;;;20.25;14.13;;;;;;;17.50;45.16;94669.84;5064433;28;20110;-76
2022/11/04 10:06:34;;;;;;;22.15;14.40;;;;;;;17.52;45.22;94663.41;5055542;28;20040;-76
2022/11/04 10:09:20;;;;;;;21.90;14.32;;;;;;;17.51;44.92;94653.91;5065336;28;20037;-76
2022/11/04 10:11:48;;;;;;;19.75;13.63;;;;;;;17.70;44.65;94654.47;5064306;28;20044;-76
2022/11/04 10:14:22;;;;;;;23.67;13.85;;;;;;;17.89;44.47;94640.91;5065592;28;20028;-76
2022/11/04 10:17:11;;;;;;;18.88;14.07;;;;;;;17.93;43.89;94644.78;5066549;28;20038;-76
2022/11/04 10:19:42;;;;;;;19.30;13.43;;;;;;;18.03;44.06;94634.88;5068560;28;20039;-76
2022/11/04 10:22:14;;;;;;;18.85;13.73;;;;;;;18.00;44.09;94635.22;5065648;28;20126;-76
2022/11/04 10:24:43;;;;;;;18.48;12.93;;;;;;;18.00;44.13;94623.91;5065972;28;20056;-76
2022/11/04 10:27:16;;;;;;;21.35;13.80;;;;;;;18.06;43.93;94610.84;5065467;28;20040;-76
2022/11/04 10:29:52;;;;;;;21.55;14.30;;;;;;;18.10;43.53;94608.69;5047543;28;20252;-76
2022/11/04 10:32:21;;;;;;;20.80;13.27;;;;;;;18.09;43.62;94612.31;5047396;28;20028;-76
2022/11/04 10:34:57;;;;;;;21.58;12.80;;;;;;;18.13;43.44;94612.75;5047769;28;20052;-76
2022/11/04 10:37:24;;;;;;;21.23;13.60;;;;;;;18.15;43.59;94611.59;5050245;28;20155;-75
2022/11/04 10:39:49;;;;;;;18.67;13.07;;;;;;;18.11;43.53;94607.72;5031678;28;20035;-75
2022/11/04 10:42:17;;;;;;;21.25;13.68;;;;;;;18.11;43.47;94568.28;5063638;28;21578;-75
2022/11/04 10:44:43;;;;;;;20.10;12.80;;;;;;;18.39;42.67;94581.63;5053060;28;20029;-75
2022/11/04 10:47:27;;;;;;;17.65;12.73;;;;;;;18.38;42.82;94584.44;5024914;28;20423;-74
2022/11/04 10:50:13;;;;;;;19.98;13.40;;;;;;;18.28;43.03;94563.66;5059615;28;20483;-75
2022/11/04 10:52:38;;;;;;;17.95;12.38;;;;;;;18.43;42.92;94579.44;5043992;28;20037;-75
2022/11/04 10:55:22;;;;;;;18.23;12.77;;;;;;;18.49;42.85;94568.19;5041821;28;20194;-75
2022/11/04 10:57:48;;;;;;;18.50;13.02;;;;;;;18.56;42.80;94557.78;5059330;28;20041;-75
2022/11/04 11:00:38;;;;;;;20.45;12.18;;;;;;;18.54;42.91;94555.31;5059390;28;20042;-75
2022/11/04 11:03:30;;;;;;;18.92;12.60;;;;;;;18.67;42.61;94547.63;5060881;28;20448;-75
2022/11/04 11:06:13;;;;;;;21.80;13.02;;;;;;;18.68;42.31;94546.59;5062157;28;20073;-75
2022/11/04 11:08:39;;;;;;;19.10;13.32;;;;;;;18.28;42.24;94537.38;5057339;28;20039;-75
2022/11/04 11:11:05;;;;;;;21.15;12.55;;;;;;;18.35;42.71;94537.47;5040451;28;20065;-75
2022/11/04 11:13:38;;;;;;;18.98;12.13;;;;;;;18.46;42.66;94523.84;5061531;28;20029;-75
2022/11/04 11:16:12;;;;;;;18.60;12.10;;;;;;;18.55;42.54;94533.28;5047586;28;20024;-75
2022/11/04 11:18:38;;;;;;;20.35;11.77;;;;;;;18.55;41.78;94520.13;5026789;28;20043;-75
2022/11/04 11:21:08;;;;;;;18.63;11.32;;;;;;;18.54;42.12;94511.41;5029150;28;20553;-75
2022/11/04 11:23:35;;;;;;;19.08;12.35;;;;;;;18.62;42.26;94512.34;5066951;28;20037;-76
2022/11/04 11:26:02;;;;;;;20.00;12.55;;;;;;;18.69;42.17;94506.16;5067715;28;20032;-75
2022/11/04 11:28:27;;;;;;;17.02;12.23;;;;;;;18.85;41.85;94509.59;5047235;28;20032;-76
2022/11/04 11:30:57;;;;;;;16.55;11.75;;;;;;;18.84;41.83;94500.06;5067827;28;20024;-76
2022/11/04 11:33:30;;;;;;;18.50;11.37;;;;;;;18.92;41.45;94497.34;5044039;28;20037;-75
2022/11/04 11:35:59;;;;;;;17.63;11.43;;;;;;;18.97;41.39;94489.69;5059918;28;20042;-74
2022/11/04 11:38:29;;;;;;;17.88;11.18;;;;;;;18.92;41.51;94481.56;5029282;28;20037;-75
2022/11/04 11:41:08;;;;;;;19.10;11.00;;;;;;;18.99;41.02;94471.88;5030533;28;20029;-74
2022/11/04 11:43:35;;;;;;;16.52;11.45;;;;;;;19.06;41.13;94464.06;5043306;28;20410;-75
2022/11/04 11:46:01;;;;;;;17.38;10.60;;;;;;;19.06;40.81;94453.56;5044128;28;20036;-76
2022/11/04 11:48:50;;;;;;;18.83;11.32;;;;;;;19.08;41.05;94449.69;5045655;28;20434;-75
2022/11/04 11:51:25;;;;;;;15.80;10.73;;;;;;;19.16;40.54;94444.31;5042551;28;20151;-75
2022/11/04 11:54:14;;;;;;;16.85;10.98;;;;;;;18.96;40.38;94452.03;5052932;28;20391;-75
2022/11/04 11:56:44;;;;;;;18.02;10.60;;;;;;;19.05;40.86;94452.72;5056190;28;20048;-76
2022/11/04 11:59:23;;;;;;;18.67;11.38;;;;;;;19.05;40.69;94434.28;5049455;28;20025;-74
2022/11/04 12:01:52;;;;;;;19.77;10.43;;;;;;;18.85;40.69;94433.28;5065619;28;20043;-76